Time;durP1;ratioP1;P1;durP2;ratioP2;P2;SDS_P1;SDS_P2;PMS_P1;PMS_P2;Temp;Humidity;BMP_temperature;BMP_pressure;BME280_temperature;BME280_humidity;BME280_pressure;Samples;Min_cycle;Max_cycle;Signal;HPM_P1;HPM_P2
2022/02/11 05:00:24;;;;;;;7.57;5.30;;;1.10;99.90;;;;;;6245191;23;20016;-90
2022/02/11 05:03:12;;;;;;;8.70;6.43;;;1.20;99.90;;;;;;6246035;23;20028;-86
2022/02/11 05:06:00;;;;;;;9.00;6.82;;;1.20;99.90;;;;;;6245694;23;20353;-89
2022/02/11 05:08:51;;;;;;;9.13;6.38;;;1.10;99.90;;;;;;6244791;23;20032;-90
2022/02/11 05:11:41;;;;;;;8.55;6.57;;;1.10;99.90;;;;;;6245327;23;20283;-89
2022/02/11 05:14:38;;;;;;;9.93;7.28;;;1.10;99.90;;;;;;6244865;23;20024;-90
2022/02/11 05:17:26;;;;;;;9.77;7.68;;;1.20;99.90;;;;;;6243270;23;20038;-89
2022/02/11 05:20:14;;;;;;;14.52;7.97;;;1.10;99.90;;;;;;6245376;23;20039;-90
2022/02/11 05:23:09;;;;;;;13.77;8.18;;;1.10;99.90;;;;;;6243326;23;20324;-90
2022/02/11 05:26:02;;;;;;;15.05;8.88;;;1.10;99.90;;;;;;6245029;23;20032;-91
2022/02/11 05:28:49;;;;;;;16.08;9.63;;;1.10;99.90;;;;;;6244623;23;20027;-89
2022/02/11 05:31:38;;;;;;;13.95;8.50;;;1.10;99.90;;;;;;6241954;23;20322;-90
2022/02/11 05:34:33;;;;;;;13.88;9.27;;;1.10;99.90;;;;;;6247679;23;20403;-90
2022/02/11 05:37:27;;;;;;;12.95;8.02;;;1.10;99.90;;;;;;6252346;23;20055;-90
2022/02/11 06:06:06;;;;;;;13.32;9.00;;;1.20;99.90;;;;;;5988210;23;20072;-89
2022/02/11 06:09:15;;;;;;;14.07;8.55;;;1.30;99.90;;;;;;5978943;24;20020;-86
2022/02/11 06:12:13;;;;;;;17.77;9.60;;;1.20;99.90;;;;;;5891386;24;20317;-89
2022/02/11 06:20:00;;;;;;;17.98;9.20;;;1.20;99.90;;;;;;5982321;24;20008;-90
2022/02/11 06:22:56;;;;;;;19.38;11.07;;;1.20;99.90;;;;;;5962305;24;20048;-85
2022/02/11 06:25:43;;;;;;;19.85;11.77;;;1.20;99.90;;;;;;5993895;23;20138;-88
2022/02/11 06:28:30;;;;;;;23.00;11.35;;;1.20;99.90;;;;;;5990661;23;20063;-88
2022/02/11 06:31:19;;;;;;;21.83;11.45;;;1.20;99.90;;;;;;6247601;23;20088;-88
2022/02/11 06:34:06;;;;;;;18.58;11.80;;;1.10;99.90;;;;;;6244168;23;20043;-88
2022/02/11 06:36:58;;;;;;;25.00;11.90;;;1.00;99.90;;;;;;6247471;23;20042;-88
2022/02/11 06:39:47;;;;;;;17.63;11.68;;;0.90;99.90;;;;;;6244468;23;20024;-88
2022/02/11 06:42:34;;;;;;;20.85;11.13;;;0.80;99.90;;;;;;6243616;23;20020;-87
2022/02/11 06:45:32;;;;;;;24.23;12.32;;;0.60;99.90;;;;;;6243983;23;20035;-87
2022/02/11 06:48:51;;;;;;;24.27;10.60;;;0.60;99.90;;;;;;6243322;23;20028;-89
2022/02/11 06:51:49;;;;;;;19.75;10.35;;;0.50;99.90;;;;;;6244482;23;20043;-87
2022/02/11 06:55:14;;;;;;;19.60;10.60;;;0.40;99.90;;;;;;6238951;23;20083;-86
2022/02/11 07:01:50;;;;;;;21.17;10.15;;;0.30;99.90;;;;;;6246062;23;20400;-88
2022/02/11 07:04:54;;;;;;;18.35;11.93;;;0.30;99.90;;;;;;6245712;22;20316;-87
2022/02/11 07:07:49;;;;;;;24.65;11.95;;;0.30;99.90;;;;;;6242734;23;20391;-85
2022/02/11 07:10:39;;;;;;;19.73;11.43;;;0.30;99.90;;;;;;6242495;23;20020;-87
2022/02/11 07:13:27;;;;;;;23.23;12.48;;;0.20;99.90;;;;;;6243396;23;20403;-86
2022/02/11 07:16:16;;;;;;;33.28;16.75;;;0.20;99.90;;;;;;6253869;23;20047;-89
2022/02/11 07:19:04;;;;;;;21.10;11.98;;;0.20;99.90;;;;;;6259789;23;20059;-87
2022/02/11 07:21:54;;;;;;;17.67;12.05;;;0.20;99.90;;;;;;6259660;23;20025;-85
2022/02/11 07:24:50;;;;;;;26.35;12.30;;;0.10;99.90;;;;;;6260659;23;20082;-85
2022/02/11 07:53:51;;;;;;;;;;;;;;;;;;;;;
2022/02/11 09:50:04;;;;;;;8.07;3.42;;;7.50;99.40;;;;;;5952849;24;20016;-90
2022/02/11 10:18:28;;;;;;;;;;;;;;;;;;;;;
2022/02/11 10:43:59;;;;;;;;;;;;;;;;;;;;;
2022/02/11 10:51:28;;;;;;;5.28;2.60;;;5.70;99.00;;;;;;6002613;23;20035;-90
2022/02/11 11:08:27;;;;;;;;;;;;;;;;;;;;;
2022/02/11 12:13:16;;;;;;;;;;;;;;;;;;;;;
2022/02/11 12:16:14;;;;;;;6.57;3.53;;;5.20;99.90;;;;;;6173786;23;20033;-91
2022/02/11 12:30:11;;;;;;;;;;;;;;;;;;;;;
2022/02/11 12:41:51;;;;;;;8.35;2.50;;;7.00;86.90;;;;;;6156515;23;20130;-89
2022/02/11 12:49:24;;;;;;;;;;;;;;;;;;;;;
2022/02/11 13:13:31;;;;;;;;;;;;;;;;;;;;;
2022/02/11 13:21:10;;;;;;;;;;;;;;;;;;;;;
2022/02/11 13:32:25;;;;;;;12.30;2.70;;;5.60;92.10;;;;;;6139220;23;20017;-88
2022/02/11 13:35:13;;;;;;;4.93;2.30;;;5.40;92.10;;;;;;6206645;23;20160;-87
2022/02/11 13:38:03;;;;;;;7.65;2.45;;;5.20;93.80;;;;;;6269127;22;20015;-88
2022/02/11 13:41:10;;;;;;;9.95;2.67;;;5.20;93.20;;;;;;6266197;22;20108;-89
2022/02/11 13:44:08;;;;;;;6.22;2.50;;;5.50;93.70;;;;;;6269324;22;20040;-85
2022/02/11 13:47:16;;;;;;;6.68;2.60;;;6.10;91.90;;;;;;6265774;22;20054;-90
2022/02/11 13:50:06;;;;;;;4.60;2.58;;;6.30;88.90;;;;;;6249242;23;20016;-89
2022/02/11 13:53:03;;;;;;;6.88;2.60;;;6.30;89.80;;;;;;6241560;23;20023;-90
2022/02/11 13:55:57;;;;;;;6.90;1.90;;;6.50;89.20;;;;;;6257014;23;20408;-89
2022/02/11 13:59:13;;;;;;;;;;;;;;;;;;;;;
2022/02/11 14:02:13;;;;;;;4.97;2.40;;;7.00;82.80;;;;;;6260514;23;20044;-87
2022/02/11 14:05:08;;;;;;;7.57;2.33;;;6.80;82.20;;;;;;6262132;23;20024;-87
2022/02/11 14:08:25;;;;;;;;;;;;;;;;;;;;;
2022/02/11 14:15:05;;;;;;;12.30;2.45;;;7.70;82.40;;;;;;6188702;23;20025;-89
2022/02/11 14:18:14;;;;;;;6.20;2.58;;;8.00;75.70;;;;;;6221168;23;20028;-89
2022/02/11 14:21:01;;;;;;;4.20;2.13;;;7.40;75.60;;;;;;6204654;23;20024;-88
2022/02/11 14:23:53;;;;;;;4.75;1.80;;;8.40;74.70;;;;;;6240406;23;20024;-89
2022/02/11 14:27:01;;;;;;;5.72;2.10;;;9.40;68.00;;;;;;6244635;23;20088;-92
2022/02/11 14:33:33;;;;;;;6.20;2.33;;;8.30;69.40;;;;;;6266461;23;20007;-90
2022/02/11 14:37:08;;;;;;;5.82;2.15;;;7.80;70.80;;;;;;6253297;23;20076;-87
2022/02/11 15:08:52;;;;;;;5.88;2.03;;;11.00;61.60;;;;;;6053441;23;20035;-93
2022/02/11 15:38:00;;;;;;;;;;;;;;;;;;;;;
2022/02/11 15:54:08;;;;;;;;;;;;;;;;;;;;;
2022/02/11 15:58:09;;;;;;;9.18;2.28;;;6.80;67.50;;;;;;6047352;23;20111;-91
2022/02/11 16:01:10;;;;;;;10.13;2.58;;;6.60;69.30;;;;;;6065913;23;20081;-90
2022/02/11 16:05:11;;;;;;;5.87;2.03;;;6.90;68.90;;;;;;6075463;23;20101;-89
